Time;durP1;ratioP1;P1;durP2;ratioP2;P2;SDS_P1;SDS_P2;PMS_P1;PMS_P2;Temp;Humidity;BMP_temperature;BMP_pressure;BME280_temperature;BME280_humidity;BME280_pressure;Samples;Min_cycle;Max_cycle;Signal;HPM_P1;HPM_P2
2021/04/08 00:00:08;;;;;;;13.13;5.40;;;2.40;26.70;;;;;;5073639;28;20176;-74
2021/04/08 00:02:33;;;;;;;6.18;4.10;;;2.40;26.70;;;;;;5072629;28;20197;-74
2021/04/08 00:04:59;;;;;;;5.40;4.57;;;2.40;26.70;;;;;;5073120;28;20180;-73
2021/04/08 00:07:25;;;;;;;4.50;4.10;;;2.40;26.70;;;;;;5074601;28;20259;-74
2021/04/08 00:09:50;;;;;;;5.63;3.80;;;2.40;26.70;;;;;;5073614;28;20204;-74
2021/04/08 00:12:16;;;;;;;9.13;5.10;;;2.40;26.70;;;;;;5074261;28;20192;-74
2021/04/08 00:14:41;;;;;;;6.10;4.50;;;2.50;26.80;;;;;;5072725;28;20180;-73
2021/04/08 00:17:07;;;;;;;4.60;4.20;;;2.50;26.50;;;;;;5074064;28;20173;-74
2021/04/08 00:19:33;;;;;;;5.40;4.90;;;2.50;26.50;;;;;;5073407;28;20182;-74
2021/04/08 00:21:58;;;;;;;5.90;4.53;;;2.50;26.80;;;;;;5073860;28;20223;-73
2021/04/08 00:24:24;;;;;;;5.10;4.60;;;2.50;26.80;;;;;;5074029;28;20177;-74
2021/04/08 00:26:49;;;;;;;5.70;4.20;;;2.60;26.80;;;;;;5072730;28;20177;-75
2021/04/08 00:29:15;;;;;;;4.60;4.20;;;2.60;26.50;;;;;;5073146;28;20583;-74
2021/04/08 00:31:40;;;;;;;5.43;4.80;;;2.60;26.80;;;;;;5073447;28;20261;-74
2021/04/08 00:34:06;;;;;;;4.43;4.03;;;2.60;26.10;;;;;;5072828;28;20205;-74
2021/04/08 00:36:32;;;;;;;5.33;4.90;;;2.60;25.90;;;;;;5072783;28;20277;-74
2021/04/08 00:38:57;;;;;;;6.93;4.50;;;2.60;25.90;;;;;;5073315;28;20575;-74
2021/04/08 00:41:24;;;;;;;5.87;4.60;;;2.60;26.00;;;;;;5074002;28;20178;-74
2021/04/08 00:43:50;;;;;;;5.28;3.75;;;2.60;26.20;;;;;;5073636;28;20706;-75
2021/04/08 00:46:15;;;;;;;4.10;3.80;;;2.70;26.20;;;;;;5073637;28;20184;-73
2021/04/08 00:48:41;;;;;;;5.80;5.07;;;2.70;26.30;;;;;;5072058;28;20206;-73
2021/04/08 00:51:07;;;;;;;4.57;4.27;;;2.70;25.80;;;;;;5073108;28;20227;-74
2021/04/08 00:53:34;;;;;;;4.73;4.33;;;2.80;25.70;;;;;;5073495;28;20228;-74
2021/04/08 00:56:01;;;;;;;6.20;4.75;;;2.80;25.50;;;;;;5072622;28;20428;-74
2021/04/08 00:58:30;;;;;;;4.82;4.40;;;2.80;25.60;;;;;;5073542;28;20178;-74
2021/04/08 01:00:56;;;;;;;5.78;5.20;;;2.80;25.70;;;;;;5072866;28;20193;-74
2021/04/08 01:03:22;;;;;;;9.10;4.67;;;2.80;25.50;;;;;;5073249;28;20200;-74
2021/04/08 01:05:48;;;;;;;4.85;4.40;;;2.80;26.10;;;;;;5073492;28;20260;-74
2021/04/08 01:08:14;;;;;;;7.23;5.10;;;2.70;25.90;;;;;;5071901;28;20272;-75
2021/04/08 01:10:41;;;;;;;6.22;5.35;;;2.70;26.10;;;;;;5072773;28;20517;-74
2021/04/08 01:13:12;;;;;;;5.25;4.80;;;2.60;26.80;;;;;;5073146;28;20205;-74
2021/04/08 01:15:38;;;;;;;4.40;4.07;;;2.60;26.50;;;;;;5072899;28;20200;-74
2021/04/08 01:18:22;;;;;;;4.85;4.40;;;2.60;26.80;;;;;;5072844;28;20662;-75
2021/04/08 01:21:16;;;;;;;7.10;4.85;;;2.70;26.90;;;;;;5072414;28;20284;-74
2021/04/08 01:24:06;;;;;;;4.78;4.15;;;2.60;26.80;;;;;;5072961;28;20270;-75
2021/04/08 01:26:59;;;;;;;4.25;3.88;;;2.70;26.90;;;;;;5072963;28;20172;-73
2021/04/08 01:29:37;;;;;;;5.20;4.75;;;2.70;26.90;;;;;;5071899;28;20513;-75
2021/04/08 01:32:04;;;;;;;5.05;4.55;;;2.60;26.80;;;;;;5072584;28;20511;-75
2021/04/08 01:34:33;;;;;;;4.18;3.83;;;2.70;27.00;;;;;;5072636;28;20189;-74
2021/04/08 01:37:03;;;;;;;5.32;4.80;;;2.70;26.90;;;;;;5072485;28;20178;-75
2021/04/08 01:39:29;;;;;;;5.63;5.13;;;2.70;26.90;;;;;;5070616;28;20558;-75
2021/04/08 01:41:57;;;;;;;3.97;3.67;;;2.70;27.40;;;;;;5072574;28;20170;-74
2021/04/08 01:44:25;;;;;;;8.23;4.95;;;2.70;26.90;;;;;;5071413;28;20193;-75
2021/04/08 01:46:59;;;;;;;4.25;3.85;;;2.70;26.90;;;;;;5071053;28;20174;-73
2021/04/08 01:49:32;;;;;;;4.63;3.85;;;2.70;26.90;;;;;;5070365;28;20217;-75
2021/04/08 01:51:58;;;;;;;5.03;4.30;;;2.70;26.90;;;;;;5072495;28;20720;-74
2021/04/08 01:54:31;;;;;;;7.85;5.40;;;2.70;26.20;;;;;;5072455;28;20177;-75
2021/04/08 01:57:04;;;;;;;4.88;4.40;;;2.70;26.90;;;;;;5070911;28;20267;-73
2021/04/08 01:59:30;;;;;;;3.70;3.40;;;2.70;26.10;;;;;;5071520;28;20252;-74
2021/04/08 02:01:57;;;;;;;6.78;4.20;;;2.60;26.40;;;;;;5072228;28;20238;-75
2021/04/08 02:04:25;;;;;;;7.13;4.47;;;2.60;26.50;;;;;;5072488;28;20188;-73
2021/04/08 02:06:52;;;;;;;5.82;3.88;;;2.50;26.60;;;;;;5072443;28;20201;-75
2021/04/08 02:09:19;;;;;;;4.53;4.13;;;2.50;26.80;;;;;;5071459;28;20216;-74
2021/04/08 02:11:47;;;;;;;6.20;3.90;;;2.50;26.80;;;;;;5070599;28;20192;-74
2021/04/08 02:14:14;;;;;;;5.03;4.18;;;2.50;26.80;;;;;;5072015;28;20251;-74
2021/04/08 02:16:46;;;;;;;5.60;4.18;;;2.50;26.80;;;;;;5071740;28;20256;-76
2021/04/08 02:19:13;;;;;;;3.63;3.33;;;2.60;26.80;;;;;;5071326;28;20184;-75
2021/04/08 02:21:41;;;;;;;3.75;3.45;;;2.60;26.80;;;;;;5072055;28;20182;-74
2021/04/08 02:24:10;;;;;;;4.85;3.50;;;2.50;26.80;;;;;;5073103;28;20201;-74
2021/04/08 02:26:40;;;;;;;7.13;4.22;;;2.60;26.80;;;;;;5071562;28;20177;-73
2021/04/08 02:29:06;;;;;;;5.15;4.68;;;2.60;26.00;;;;;;5070839;28;20311;-74
2021/04/08 02:31:35;;;;;;;5.07;4.63;;;2.60;26.40;;;;;;5055767;28;20210;-72
2021/04/08 02:34:02;;;;;;;4.68;4.28;;;2.60;26.10;;;;;;5051810;28;20250;-74
2021/04/08 02:36:27;;;;;;;4.20;3.80;;;2.60;26.30;;;;;;5049530;28;20203;-74
2021/04/08 02:38:53;;;;;;;4.10;3.80;;;2.60;26.00;;;;;;5051337;28;20428;-74
2021/04/08 02:41:19;;;;;;;4.97;4.50;;;2.60;25.90;;;;;;5067157;28;20448;-74
2021/04/08 02:43:45;;;;;;;4.85;4.32;;;2.60;26.00;;;;;;5075921;22;20656;-72
2021/04/08 02:46:10;;;;;;;5.27;4.13;;;2.70;25.90;;;;;;5071541;28;20217;-72
2021/04/08 02:48:36;;;;;;;4.77;4.23;;;2.70;25.50;;;;;;5071211;28;20712;-73
2021/04/08 02:51:07;;;;;;;4.00;3.70;;;2.70;25.60;;;;;;5070792;28;20189;-72
2021/04/08 02:53:59;;;;;;;4.25;3.95;;;2.70;25.20;;;;;;5069422;28;20263;-70
2021/04/08 02:56:32;;;;;;;12.82;5.05;;;2.70;25.40;;;;;;5070870;28;20265;-70
2021/04/08 02:59:27;;;;;;;4.53;4.15;;;2.70;25.60;;;;;;5069028;28;20185;-71
2021/04/08 03:02:08;;;;;;;4.85;3.92;;;2.70;25.20;;;;;;5070854;28;20181;-70
2021/04/08 03:04:48;;;;;;;4.55;4.25;;;2.70;24.90;;;;;;5070402;28;20207;-71
2021/04/08 03:07:19;;;;;;;5.47;4.32;;;2.70;25.20;;;;;;5069833;28;20177;-71
2021/04/08 03:09:45;;;;;;;7.35;4.70;;;2.70;25.60;;;;;;5070022;28;20205;-71
2021/04/08 03:12:14;;;;;;;6.45;4.82;;;2.60;25.40;;;;;;5069330;28;20178;-71
2021/04/08 03:14:43;;;;;;;6.50;4.47;;;2.70;25.80;;;;;;5070514;28;20216;-71
2021/04/08 03:17:13;;;;;;;4.80;4.35;;;2.70;25.40;;;;;;5069237;28;20180;-70
2021/04/08 03:19:42;;;;;;;4.20;3.80;;;2.70;25.40;;;;;;5069976;28;20174;-71
2021/04/08 03:22:10;;;;;;;6.75;4.82;;;2.70;25.80;;;;;;5069387;28;20623;-70
2021/04/08 03:24:36;;;;;;;4.35;3.95;;;2.60;25.60;;;;;;5070476;28;20189;-71
2021/04/08 03:27:03;;;;;;;5.10;4.70;;;2.60;25.90;;;;;;5069230;28;20268;-72
2021/04/08 03:29:29;;;;;;;7.20;4.15;;;2.60;25.80;;;;;;5069929;28;20228;-71
2021/04/08 03:31:55;;;;;;;6.70;5.05;;;2.60;25.90;;;;;;5068998;28;20189;-72
2021/04/08 03:34:22;;;;;;;5.05;4.55;;;2.70;30.60;;;;;;5069150;28;20212;-70
2021/04/08 03:36:49;;;;;;;5.25;4.75;;;2.70;30.90;;;;;;5069454;28;20170;-71
2021/04/08 03:39:14;;;;;;;4.57;4.18;;;2.80;30.70;;;;;;5070044;28;20185;-71
2021/04/08 03:41:42;;;;;;;5.83;4.10;;;2.70;30.20;;;;;;5070357;28;20188;-70
2021/04/08 03:44:11;;;;;;;5.93;4.30;;;2.70;28.70;;;;;;5070379;28;20235;-71
2021/04/08 03:46:39;;;;;;;3.72;3.42;;;2.70;26.40;;;;;;5070381;28;20262;-71
2021/04/08 03:49:07;;;;;;;5.13;4.55;;;2.70;26.90;;;;;;5069826;28;20330;-71
2021/04/08 03:51:34;;;;;;;4.80;3.60;;;2.70;30.70;;;;;;5070453;28;20217;-71
2021/04/08 03:54:03;;;;;;;6.35;4.40;;;2.60;27.60;;;;;;5070380;28;20512;-70
2021/04/08 03:56:31;;;;;;;5.90;4.28;;;2.60;27.50;;;;;;5070451;28;20574;-71
2021/04/08 03:58:57;;;;;;;5.07;3.72;;;2.60;27.30;;;;;;5069664;28;20270;-71
2021/04/08 04:01:23;;;;;;;4.75;3.78;;;2.60;27.30;;;;;;5070211;28;20186;-70
2021/04/08 04:03:49;;;;;;;5.97;4.80;;;2.60;26.80;;;;;;5070130;28;20548;-71
2021/04/08 04:06:16;;;;;;;7.10;5.75;;;2.60;26.90;;;;;;5069791;28;20792;-71
2021/04/08 04:08:42;;;;;;;5.35;4.40;;;2.60;26.80;;;;;;5073773;28;20247;-70
2021/04/08 04:11:11;;;;;;;6.07;4.93;;;2.70;27.50;;;;;;5073709;28;20536;-72
2021/04/08 04:13:37;;;;;;;6.07;4.95;;;2.70;27.60;;;;;;5072497;28;20706;-71
2021/04/08 04:16:05;;;;;;;5.10;4.70;;;2.70;27.30;;;;;;5073837;28;20185;-71
2021/04/08 04:18:31;;;;;;;5.60;4.68;;;2.70;27.30;;;;;;5072374;28;20416;-71
2021/04/08 04:20:57;;;;;;;4.70;4.30;;;2.70;27.20;;;;;;5073167;28;20177;-70
2021/04/08 04:23:22;;;;;;;6.70;5.20;;;2.70;27.60;;;;;;5072247;28;20196;-71
2021/04/08 04:25:48;;;;;;;3.80;3.50;;;2.70;27.30;;;;;;5072165;28;20261;-71
2021/04/08 04:28:14;;;;;;;6.50;4.53;;;2.70;26.90;;;;;;5073372;28;20654;-71
2021/04/08 04:30:39;;;;;;;4.80;4.23;;;2.60;27.60;;;;;;5072774;28;20264;-71
2021/04/08 04:33:05;;;;;;;9.17;4.90;;;2.60;28.90;;;;;;5073136;28;20231;-71
2021/04/08 04:35:30;;;;;;;6.70;4.37;;;2.60;28.10;;;;;;5073276;28;20212;-71
2021/04/08 04:37:56;;;;;;;6.10;5.50;;;2.60;27.60;;;;;;5076445;28;20176;-71
2021/04/08 04:40:22;;;;;;;5.37;4.83;;;2.60;28.00;;;;;;5079957;28;20224;-71
2021/04/08 04:42:48;;;;;;;4.50;4.10;;;2.60;28.10;;;;;;5079101;28;20424;-72
2021/04/08 04:45:15;;;;;;;4.83;4.43;;;2.60;31.20;;;;;;5073325;28;20438;-71
2021/04/08 04:47:42;;;;;;;4.72;4.05;;;2.70;39.20;;;;;;5072145;28;20192;-72
2021/04/08 04:50:10;;;;;;;7.15;4.60;;;2.60;27.60;;;;;;5072358;28;20289;-71
2021/04/08 04:52:36;;;;;;;6.13;4.65;;;2.50;27.50;;;;;;5073144;28;20178;-72
2021/04/08 04:55:03;;;;;;;4.50;4.10;;;2.50;27.70;;;;;;5073104;28;20170;-72
2021/04/08 04:57:29;;;;;;;7.00;4.82;;;2.50;27.80;;;;;;5071783;28;20928;-71
2021/04/08 04:59:54;;;;;;;4.20;3.90;;;2.50;27.90;;;;;;5072332;28;20180;-72
2021/04/08 05:02:20;;;;;;;4.70;4.23;;;2.50;27.70;;;;;;5072950;28;20264;-71
2021/04/08 05:04:45;;;;;;;5.33;4.70;;;2.60;27.90;;;;;;5073154;28;20287;-71
2021/04/08 05:07:11;;;;;;;8.17;4.27;;;2.60;27.70;;;;;;5072909;28;20601;-72
2021/04/08 05:09:36;;;;;;;5.20;4.03;;;2.60;27.00;;;;;;5072182;28;20233;-71
2021/04/08 05:12:02;;;;;;;5.00;4.57;;;2.60;27.30;;;;;;5071577;28;20186;-71
2021/04/08 05:14:28;;;;;;;5.03;4.63;;;2.60;27.20;;;;;;5071569;28;20198;-71
2021/04/08 05:16:54;;;;;;;5.23;4.73;;;2.60;26.80;;;;;;5071142;28;20282;-72
2021/04/08 05:19:20;;;;;;;4.55;4.15;;;2.60;26.80;;;;;;5071079;28;20182;-70
2021/04/08 05:21:48;;;;;;;5.72;3.97;;;2.60;26.80;;;;;;5072624;28;20203;-71
2021/04/08 05:24:13;;;;;;;5.20;4.22;;;2.70;26.90;;;;;;5069470;28;20201;-71
2021/04/08 05:26:39;;;;;;;4.73;4.23;;;2.70;26.90;;;;;;5070716;28;20197;-71
2021/04/08 05:29:05;;;;;;;6.30;4.20;;;;;;;;;;5072118;28;20200;-71
2021/04/08 05:31:31;;;;;;;4.33;3.93;;;2.70;26.50;;;;;;5072563;28;20178;-71
2021/04/08 05:33:56;;;;;;;8.25;4.78;;;2.80;27.00;;;;;;5080418;28;20436;-70
2021/04/08 05:36:22;;;;;;;7.30;4.60;;;2.80;26.20;;;;;;5086694;28;20170;-71
2021/04/08 05:38:48;;;;;;;4.30;4.00;;;2.80;26.10;;;;;;5069702;28;20191;-71
2021/04/08 05:41:13;;;;;;;4.57;4.27;;;2.90;25.70;;;;;;5072213;28;20182;-71
2021/04/08 05:43:39;;;;;;;4.67;4.30;;;3.00;25.60;;;;;;5070313;28;20217;-71
2021/04/08 05:46:09;;;;;;;5.10;4.70;;;3.00;25.70;;;;;;5071688;28;20257;-71
2021/04/08 05:48:34;;;;;;;7.15;5.20;;;3.10;25.40;;;;;;5071718;28;20166;-70
2021/04/08 05:51:00;;;;;;;8.10;4.87;;;3.20;25.60;;;;;;5071022;28;20177;-70
2021/04/08 05:53:25;;;;;;;4.50;4.10;;;3.30;25.30;;;;;;5069252;28;20198;-70
2021/04/08 05:55:51;;;;;;;5.00;4.70;;;3.40;25.50;;;;;;5060393;28;20290;-71
2021/04/08 05:58:16;;;;;;;5.60;5.10;;;3.40;24.50;;;;;;5068307;28;20244;-70
2021/04/08 06:00:42;;;;;;;6.53;4.93;;;3.50;24.90;;;;;;5070847;28;20213;-70
2021/04/08 06:03:08;;;;;;;6.03;5.63;;;3.60;24.40;;;;;;5071382;28;20201;-70
2021/04/08 06:05:35;;;;;;;5.50;4.73;;;3.80;24.10;;;;;;5050756;28;20324;-70
2021/04/08 06:08:01;;;;;;;7.40;5.60;;;3.80;23.50;;;;;;5051401;28;20174;-70
2021/04/08 06:10:26;;;;;;;6.20;5.70;;;4.00;23.20;;;;;;5049603;28;20213;-69
2021/04/08 06:12:52;;;;;;;5.60;5.13;;;4.00;22.80;;;;;;5049886;28;20342;-69
2021/04/08 06:15:18;;;;;;;7.90;6.00;;;4.10;22.90;;;;;;5052367;28;20274;-70
2021/04/08 06:17:44;;;;;;;6.18;5.57;;;4.20;23.20;;;;;;5051219;28;20171;-71
2021/04/08 06:20:10;;;;;;;5.80;5.30;;;;;;;;;;5068655;28;20188;-71
2021/04/08 06:22:36;;;;;;;5.20;4.90;;;;;;;;;;5071366;28;20170;-71
2021/04/08 06:25:04;;;;;;;6.20;5.80;;;;;;;;;;5056652;28;20241;-71
2021/04/08 06:27:33;;;;;;;7.07;6.47;;;5.40;62.00;;;;;;5071206;28;20409;-71
2021/04/08 06:29:59;;;;;;;7.07;6.55;;;5.70;25.80;;;;;;5052210;28;20200;-71
2021/04/08 06:32:25;;;;;;;6.83;6.23;;;5.90;26.40;;;;;;5050637;28;20181;-72
2021/04/08 06:34:50;;;;;;;7.25;6.85;;;6.30;27.20;;;;;;5061569;28;20238;-73
2021/04/08 06:37:16;;;;;;;8.73;8.00;;;6.80;17.50;;;;;;5070866;28;20898;-70
2021/04/08 06:39:41;;;;;;;9.37;8.87;;;7.20;17.50;;;;;;5070218;28;20180;-69
2021/04/08 06:42:08;;;;;;;10.50;9.20;;;7.80;16.80;;;;;;5070894;28;20210;-70
2021/04/08 06:44:35;;;;;;;8.93;8.30;;;;;;;;;;5060057;28;20638;-70
2021/04/08 06:47:04;;;;;;;10.00;9.37;;;;;;;;;;5049578;28;20417;-70
2021/04/08 06:49:44;;;;;;;9.10;8.50;;;;;;;;;;5049205;28;20463;-69
2021/04/08 06:52:10;;;;;;;8.77;8.27;;;8.10;49.50;;;;;;5049372;28;20424;-70
2021/04/08 06:54:38;;;;;;;9.53;8.93;;;8.30;14.80;;;;;;5061842;28;20830;-70
2021/04/08 06:57:04;;;;;;;9.83;9.33;;;9.00;14.20;;;;;;5049152;28;20422;-70
2021/04/08 06:59:31;;;;;;;9.77;9.20;;;9.80;12.90;;;;;;5053096;28;20423;-69
2021/04/08 07:01:58;;;;;;;10.10;9.50;;;9.80;11.80;;;;;;5067015;28;20418;-70
2021/04/08 07:04:24;;;;;;;10.20;9.70;;;9.90;11.40;;;;;;5065157;28;21188;-70
2021/04/08 07:06:50;;;;;;;9.80;9.40;;;9.50;12.00;;;;;;5072513;28;20425;-69
2021/04/08 07:09:17;;;;;;;10.63;10.13;;;;;;;;;;5071545;28;20289;-69
2021/04/08 07:11:43;;;;;;;10.03;9.37;;;9.50;12.10;;;;;;5065695;28;20462;-69
2021/04/08 07:14:10;;;;;;;10.40;9.90;;;10.60;11.50;;;;;;5065739;28;21225;-69
2021/04/08 07:16:37;;;;;;;10.67;10.07;;;;;;;;;;5066700;28;20785;-69
2021/04/08 07:19:04;;;;;;;10.57;10.10;;;;;;;;;;5057777;28;20524;-72
2021/04/08 07:21:31;;;;;;;11.00;10.50;;;;;;;;;;5063457;28;20421;-70
2021/04/08 07:24:12;;;;;;;11.60;10.90;;;;;;;;;;5066714;28;20444;-69
2021/04/08 07:26:58;;;;;;;11.40;10.90;;;;;;;;;;5050448;28;20437;-69
2021/04/08 07:29:43;;;;;;;11.00;10.50;;;;;;;;;;5049694;28;20580;-69
2021/04/08 07:32:11;;;;;;;10.67;10.17;;;;;;;;;;5069383;28;20951;-69
2021/04/08 07:34:38;;;;;;;11.10;10.50;;;;;;;;;;5066943;28;20846;-69
2021/04/08 07:37:05;;;;;;;11.23;10.60;;;;;;;;;;5064185;28;20428;-69
2021/04/08 07:39:35;;;;;;;11.43;10.67;;;;;;;;;;5053882;28;20420;-69
2021/04/08 07:42:06;;;;;;;12.07;11.37;;;;;;;;;;5072368;28;20479;-70
2021/04/08 07:44:42;;;;;;;11.63;10.93;;;;;;;;;;5073974;28;20467;-72
2021/04/08 07:47:40;;;;;;;10.93;10.37;;;8.30;12.50;;;;;;5060215;28;20440;-71
2021/04/08 07:50:05;;;;;;;11.07;10.47;;;8.30;13.50;;;;;;5054600;28;20550;-70
2021/04/08 07:52:35;;;;;;;10.77;10.27;;;8.10;14.20;;;;;;5074515;28;20503;-71
2021/04/08 07:55:09;;;;;;;11.50;10.80;;;7.90;13.90;;;;;;5073795;28;20194;-71
2021/04/08 07:57:53;;;;;;;15.00;11.50;;;7.70;15.10;;;;;;5073429;28;20832;-71
2021/04/08 08:00:40;;;;;;;12.30;11.70;;;7.40;16.10;;;;;;5073500;28;20399;-71
2021/04/08 08:03:26;;;;;;;11.10;10.63;;;7.30;12.10;;;;;;5064856;28;20442;-71
2021/04/08 08:05:58;;;;;;;11.90;11.30;;;;;;;;;;5062171;28;20427;-70
2021/04/08 08:08:34;;;;;;;12.18;11.40;;;6.50;15.50;;;;;;5073356;28;20479;-70
2021/04/08 08:11:14;;;;;;;11.93;11.32;;;6.40;17.40;;;;;;5071266;28;20624;-70
2021/04/08 08:13:51;;;;;;;12.63;11.85;;;6.40;19.30;;;;;;5073719;28;20190;-71
2021/04/08 08:16:22;;;;;;;11.95;11.25;;;6.30;17.80;;;;;;5072583;28;20579;-71
2021/04/08 08:18:48;;;;;;;11.35;10.75;;;6.30;18.40;;;;;;5071859;28;20175;-70
2021/04/08 08:21:19;;;;;;;10.88;10.27;;;6.10;13.30;;;;;;5073775;28;20663;-70
2021/04/08 08:23:46;;;;;;;11.88;11.18;;;6.10;14.00;;;;;;5052210;28;20587;-71
2021/04/08 08:26:29;;;;;;;12.10;11.40;;;6.10;14.50;;;;;;5054946;28;20183;-71
2021/04/08 08:28:58;;;;;;;11.40;10.80;;;5.90;15.20;;;;;;5071299;28;20214;-71
2021/04/08 08:31:40;;;;;;;12.32;11.35;;;5.90;14.40;;;;;;5069633;28;20192;-72
2021/04/08 08:34:09;;;;;;;12.13;11.20;;;5.90;14.80;;;;;;5068938;28;20226;-72
2021/04/08 08:36:39;;;;;;;11.57;10.98;;;6.00;14.50;;;;;;5071324;28;20271;-69
2021/04/08 08:39:09;;;;;;;11.70;11.20;;;5.90;15.00;;;;;;5054802;28;20187;-69
2021/04/08 08:41:37;;;;;;;12.52;11.93;;;5.90;15.00;;;;;;5070501;28;20180;-73
2021/04/08 08:44:05;;;;;;;11.73;11.10;;;5.90;15.20;;;;;;5081807;22;20622;-70
2021/04/08 08:46:31;;;;;;;10.60;10.05;;;5.90;16.50;;;;;;5048866;28;20183;-70
2021/04/08 08:48:59;;;;;;;10.27;9.70;;;5.90;17.10;;;;;;5033065;28;20684;-70
2021/04/08 08:51:26;;;;;;;12.37;11.20;;;5.90;16.90;;;;;;5051747;28;20181;-70
2021/04/08 08:53:53;;;;;;;10.13;9.52;;;6.10;17.00;;;;;;5053574;28;20435;-71
2021/04/08 08:56:23;;;;;;;11.27;10.77;;;6.40;17.40;;;;;;5051239;28;20735;-71
2021/04/08 08:58:54;;;;;;;10.90;10.40;;;6.60;15.60;;;;;;5051845;28;20199;-71
2021/04/08 09:01:21;;;;;;;10.80;10.23;;;6.70;16.00;;;;;;5052638;28;20185;-71
2021/04/08 09:03:48;;;;;;;11.20;10.60;;;6.80;15.20;;;;;;5032943;28;20823;-68
2021/04/08 09:06:15;;;;;;;11.40;10.87;;;7.00;15.40;;;;;;5035014;28;20425;-69
2021/04/08 09:08:45;;;;;;;12.73;12.03;;;7.10;14.70;;;;;;5052521;28;20413;-70
2021/04/08 09:11:24;;;;;;;11.10;10.50;;;7.50;15.20;;;;;;5052917;28;20417;-69
2021/04/08 09:13:54;;;;;;;16.20;11.20;;;7.50;15.30;;;;;;5053300;28;20431;-68
2021/04/08 09:16:21;;;;;;;12.20;11.37;;;7.50;15.80;;;;;;5048807;28;20585;-70
2021/04/08 09:19:00;;;;;;;12.33;11.17;;;7.50;15.70;;;;;;5032395;28;20417;-68
2021/04/08 09:21:30;;;;;;;11.57;10.87;;;7.30;14.70;;;;;;5033530;28;20457;-70
2021/04/08 09:24:19;;;;;;;12.37;11.37;;;7.30;15.80;;;;;;5033360;28;20792;-71
2021/04/08 09:26:48;;;;;;;12.60;11.80;;;7.40;15.60;;;;;;5036394;28;20761;-70
2021/04/08 09:29:38;;;;;;;12.47;11.87;;;7.70;16.30;;;;;;5049362;28;20472;-71
2021/04/08 09:32:25;;;;;;;12.00;11.17;;;7.90;14.30;;;;;;5043729;28;20441;-70
2021/04/08 09:35:17;;;;;;;13.57;12.43;;;7.90;14.80;;;;;;5032409;28;20433;-71
2021/04/08 09:37:46;;;;;;;12.47;11.77;;;7.90;14.50;;;;;;5032768;28;20420;-70
2021/04/08 09:43:19;;;;;;;12.63;11.93;;;7.90;14.40;;;;;;5052254;28;20416;-70
2021/04/08 09:45:48;;;;;;;12.97;12.37;;;8.00;13.50;;;;;;5052555;28;20427;-71
2021/04/08 09:48:21;;;;;;;13.70;13.00;;;8.00;13.50;;;;;;5050332;28;20944;-70
2021/04/08 09:50:56;;;;;;;13.70;12.97;;;7.90;12.80;;;;;;5051628;28;20468;-70
2021/04/08 09:53:29;;;;;;;12.27;11.67;;;7.70;11.40;;;;;;5052111;28;20439;-71
2021/04/08 09:56:00;;;;;;;13.30;12.73;;;7.60;12.90;;;;;;5051847;28;20412;-71
2021/04/08 09:58:28;;;;;;;13.97;13.20;;;7.70;11.60;;;;;;5051135;28;20420;-70
2021/04/08 10:00:57;;;;;;;14.30;13.40;;;7.90;11.80;;;;;;5050999;28;20421;-69
2021/04/08 10:03:40;;;;;;;13.87;13.17;;;8.20;10.90;;;;;;5051066;28;20490;-70
2021/04/08 10:06:17;;;;;;;14.23;13.63;;;8.30;10.20;;;;;;5051502;28;20766;-69
2021/04/08 10:08:43;;;;;;;14.57;13.83;;;8.10;11.00;;;;;;5050638;28;20788;-69
2021/04/08 10:11:10;;;;;;;14.77;13.90;;;8.10;11.00;;;;;;5051216;28;20467;-69
2021/04/08 10:13:36;;;;;;;13.60;13.10;;;8.10;10.30;;;;;;5051395;28;20484;-70
2021/04/08 10:16:13;;;;;;;14.40;13.80;;;8.20;10.80;;;;;;5050709;28;20429;-70
2021/04/08 10:18:40;;;;;;;14.50;13.90;;;8.20;8.60;;;;;;5051114;28;20949;-70
2021/04/08 10:21:09;;;;;;;13.70;13.20;;;8.20;9.00;;;;;;5048566;28;20945;-69
2021/04/08 10:23:37;;;;;;;13.70;13.10;;;8.10;9.20;;;;;;5032218;28;20466;-69
2021/04/08 10:26:09;;;;;;;13.77;13.23;;;8.10;9.20;;;;;;5032514;28;20429;-70
2021/04/08 10:28:45;;;;;;;13.80;13.10;;;7.90;10.00;;;;;;5034158;28;20414;-71
2021/04/08 10:31:18;;;;;;;14.30;13.60;;;;;;;;;;5033703;28;20416;-70
2021/04/08 10:33:45;;;;;;;13.50;12.87;;;;;;;;;;5047379;28;20988;-70
2021/04/08 10:36:28;;;;;;;13.70;13.10;;;7.50;51.50;;;;;;5047218;28;20519;-69
2021/04/08 10:39:14;;;;;;;14.63;13.70;;;8.20;38.40;;;;;;5050850;28;20787;-70
2021/04/08 10:41:57;;;;;;;15.23;13.67;;;7.50;43.00;;;;;;5050880;28;20435;-70
2021/04/08 10:44:30;;;;;;;14.33;13.50;;;7.90;48.40;;;;;;5045776;28;20547;-69
2021/04/08 10:47:00;;;;;;;14.53;13.73;;;;;;;;;;5050349;28;20804;-70
2021/04/08 10:49:29;;;;;;;13.20;12.70;;;8.00;51.40;;;;;;5050660;28;20908;-69
2021/04/08 10:51:55;;;;;;;15.37;14.50;;;;;;;;;;5049700;28;20414;-70
2021/04/08 10:54:26;;;;;;;14.70;14.00;;;10.20;13.90;;;;;;5031871;28;20922;-71
2021/04/08 10:56:51;;;;;;;14.43;13.70;;;8.80;25.00;;;;;;5032914;28;20422;-69
2021/04/08 10:59:19;;;;;;;14.90;14.17;;;8.50;30.60;;;;;;5031029;28;20426;-71
2021/04/08 11:01:46;;;;;;;14.53;13.93;;;8.50;28.50;;;;;;5031917;28;20178;-71
2021/04/08 11:04:11;;;;;;;14.53;13.77;;;8.50;25.60;;;;;;5051016;28;20436;-70
2021/04/08 11:06:37;;;;;;;14.27;13.47;;;8.70;30.90;;;;;;5051576;28;20448;-71
2021/04/08 11:09:04;;;;;;;13.57;13.07;;;;;;;;;;5049537;28;20214;-71
2021/04/08 11:11:32;;;;;;;15.50;14.67;;;;;;;;;;5040025;28;20286;-72
2021/04/08 11:13:57;;;;;;;14.47;13.87;;;10.00;28.50;;;;;;5032607;28;20468;-71
2021/04/08 11:16:26;;;;;;;13.63;12.90;;;9.80;10.30;;;;;;5031006;28;20453;-71
2021/04/08 11:18:53;;;;;;;13.73;13.20;;;10.20;9.80;;;;;;5030111;28;20198;-70
2021/04/08 11:21:19;;;;;;;15.00;14.40;;;10.60;7.30;;;;;;5039807;28;20487;-71
2021/04/08 11:23:45;;;;;;;15.20;14.30;;;10.60;6.20;;;;;;5050498;28;20428;-71
2021/04/08 11:26:11;;;;;;;15.57;14.90;;;10.50;5.60;;;;;;5050519;28;20411;-70
2021/04/08 11:28:41;;;;;;;14.80;14.20;;;10.10;7.40;;;;;;5050082;28;20911;-71
2021/04/08 11:31:14;;;;;;;15.17;14.43;;;9.80;8.20;;;;;;5049034;28;20473;-71
2021/04/08 11:33:41;;;;;;;15.23;14.53;;;9.60;8.20;;;;;;5050414;28;20429;-70
2021/04/08 11:36:19;;;;;;;14.80;14.13;;;9.50;8.30;;;;;;5050842;28;20417;-70
2021/04/08 11:38:45;;;;;;;15.13;14.53;;;9.30;7.60;;;;;;5048964;28;20921;-69
2021/04/08 11:41:11;;;;;;;15.50;14.43;;;9.30;8.00;;;;;;5030824;28;20451;-70
2021/04/08 11:43:51;;;;;;;14.87;13.87;;;9.20;8.70;;;;;;5028921;28;20629;-70
2021/04/08 11:46:27;;;;;;;14.77;14.13;;;9.40;8.90;;;;;;5030728;28;20501;-70
2021/04/08 11:48:54;;;;;;;14.73;14.10;;;9.40;8.60;;;;;;5043904;28;20429;-70
2021/04/08 11:51:22;;;;;;;14.90;14.10;;;9.40;8.40;;;;;;5050851;28;20416;-71
2021/04/08 11:53:48;;;;;;;15.00;14.40;;;9.40;8.10;;;;;;5051889;28;20515;-73
2021/04/08 11:56:31;;;;;;;15.30;14.50;;;9.60;8.10;;;;;;5051124;28;20825;-71
2021/04/08 11:59:13;;;;;;;15.70;14.67;;;9.70;6.60;;;;;;5033773;28;20217;-70
2021/04/08 12:01:42;;;;;;;14.50;13.83;;;9.80;7.50;;;;;;5030822;28;20408;-70
2021/04/08 12:04:16;;;;;;;15.00;14.30;;;9.90;7.10;;;;;;5037721;28;20457;-71
2021/04/08 12:06:45;;;;;;;14.60;14.00;;;9.90;6.90;;;;;;5035093;28;20411;-71
2021/04/08 12:09:11;;;;;;;15.20;14.50;;;10.00;7.40;;;;;;5033424;28;20467;-70
2021/04/08 12:12:07;;;;;;;15.83;15.03;;;10.30;6.60;;;;;;5051708;28;20432;-72
2021/04/08 12:14:51;;;;;;;15.97;15.27;;;10.60;5.40;;;;;;5050520;28;20459;-71
2021/04/08 12:17:19;;;;;;;14.70;14.13;;;10.40;5.50;;;;;;5051006;28;20416;-70
2021/04/08 12:19:44;;;;;;;16.60;15.90;;;10.30;5.40;;;;;;5051899;28;20433;-70
2021/04/08 12:22:12;;;;;;;16.53;15.83;;;10.20;4.80;;;;;;5051402;28;20481;-71
2021/04/08 12:24:39;;;;;;;15.40;14.80;;;10.20;5.30;;;;;;5030728;28;20256;-71
2021/04/08 12:27:24;;;;;;;16.33;15.53;;;10.10;4.30;;;;;;5031437;28;20426;-70
2021/04/08 12:29:50;;;;;;;16.83;15.83;;;10.00;5.20;;;;;;5033813;28;20556;-71
2021/04/08 12:32:26;;;;;;;16.43;15.63;;;;;;;;;;5034285;28;20845;-76
2021/04/08 12:34:52;;;;;;;15.73;15.03;;;9.70;47.20;;;;;;5049534;28;20205;-71
2021/04/08 12:37:18;;;;;;;15.20;14.60;;;;;;;;;;5039098;28;20431;-71
2021/04/08 12:39:44;;;;;;;16.90;16.10;;;;;;;;;;5052301;28;20190;-71
2021/04/08 12:42:12;;;;;;;16.67;15.90;;;;;;;;;;5053915;28;20837;-71
2021/04/08 12:44:38;;;;;;;16.17;15.47;;;;;;;;;;5054380;28;20513;-72
2021/04/08 12:47:04;;;;;;;16.60;15.70;;;;;;;;;;5053914;28;20420;-72
2021/04/08 12:49:29;;;;;;;16.43;15.73;;;;;;;;;;5046642;28;20476;-71
2021/04/08 12:51:55;;;;;;;16.23;15.53;;;;;;;;;;5033670;28;20424;-71
2021/04/08 12:54:21;;;;;;;15.93;14.93;;;;;;;;;;5033566;28;20438;-72
2021/04/08 12:56:47;;;;;;;17.50;15.97;;;;;;;;;;5033441;28;20515;-72
2021/04/08 12:59:14;;;;;;;17.03;16.13;;;;;;;;;;5032774;28;20425;-74
2021/04/08 13:01:40;;;;;;;17.03;16.30;;;;;;;;;;5038648;28;20461;-73
2021/04/08 13:04:06;;;;;;;17.30;16.50;;;;;;;;;;5052600;28;20461;-73
2021/04/08 13:06:32;;;;;;;16.77;16.07;;;;;;;;;;5053035;28;20507;-72
2021/04/08 13:08:58;;;;;;;17.03;16.23;;;;;;;;;;5052234;28;20419;-71
2021/04/08 13:11:24;;;;;;;16.83;15.93;;;;;;;;;;5053215;28;20425;-71
2021/04/08 13:13:50;;;;;;;17.97;16.87;;;;;;;;;;5068135;28;20445;-71